Open Door, Argentina
Current Conditions -  °F | °C
As of 3:00 PM on Sunday 25 Jan 2015 (Local Time) from SADF Reporting Station
Clear Clear  
Wind Chill: 90°   Ceiling: Unl
Heat Index: 91°   Visibility: 6mi
Dew Point: 64°   Wind: 7mph
Humidity: 43%   Direction: 50°NE
Pressure: 29.8"   Gusts: NA
Location:  34.5°S, 59.1°W
Report Text: SADF 251800Z 05006KT CAVOK 32/18 Q1009
Loading
Personal Weather Stations






























Interactive Weather Map New forecast layout! Learn more

10-Day Weather Forecast

Advertisements
Track Severe Weather on mobile